Wind From: 11-12-2017 07:30 Until: 12-12-2017 06:00 warning for: Wind Level: Orange info button

Power and phone distribution networks may be disrupted for relatively long periods., Roofs and chimneys can be damaged. , Tree branches may break. , Vehicles can be deported. , Traffic may be disrupted, particularly on secondary roads in forest areas. Limit your trips. , Limit your speed in highway driving, especially if you drive a vehicle or hitch sensitive to wind. , Do not go for walks in forests or along the coast., In town, be vigilant against possible falling objects., Do not work on roofs and do not touch any electrical line fallen on the ground., Store or secure sensitive objects to wind or likely to be damaged., Always install power generators outside buildings. 


Meteo18 Weather Cam more information Meteo18 Weather Cam


Thunder radar more information blitzortung!


Rain radar more information rain snow radar


Visit our other weather sites:

Template documentation
and downloads

And another site



Weather Underground History page Text

Daily Summary for July 19, 2016 Units:  Metric    English   Both
« Previous Day
Next Day »
Daily Weekly Monthly Yearly Custom
  High: Low: Average:
Temperature: 36.9 °C 16.2 °C 27.4 °C
Dew Point: 19.1 °C 12.7 °C 15.9 °C
Humidity: 94 % 25 % 56 %
Wind Speed: 8.0 km/h 0.0 km/h 1 km/h
Wind Gust: 16.1 km/h - -
Wind:- - WNW
Pressure: 1018.8 hPa 1013.8 hPa -
Precipitation: 0.0 mm    
Historical Graphs
 
 
Tabular Data for July 19, 2016
Time Temperature Dew Point Pressure Wind Wind Speed Wind Gust Humidity Rainfall Rate (Hourly)
00:02 21.9 °C 17.1 °C 1018.8 hPa Calm     74 % 0.0 mm
00:12 21.3 °C 16.9 °C 1018.8 hPa Calm     76 % 0.0 mm
00:17 21.0 °C 16.8 °C 1018.8 hPa Calm     77 % 0.0 mm
00:22 20.7 °C 16.7 °C 1018.8 hPa Calm     78 % 0.0 mm
00:32 20.2 °C 16.6 °C 1018.8 hPa Calm     80 % 0.0 mm
00:42 19.9 °C 16.5 °C 1018.8 hPa Calm     81 % 0.0 mm
00:47 19.9 °C 16.5 °C 1018.5 hPa Calm     81 % 0.0 mm
00:57 19.9 °C 16.5 °C 1018.5 hPa Calm     81 % 0.0 mm
01:02 19.9 °C 16.5 °C 1018.5 hPa Calm     81 % 0.0 mm
01:12 19.6 °C 16.4 °C 1018.5 hPa Calm     82 % 0.0 mm
01:17 19.6 °C 16.6 °C 1018.5 hPa Calm     83 % 0.0 mm
01:22 19.7 °C 16.7 °C 1018.5 hPa Calm     83 % 0.0 mm
01:32 19.4 °C 16.4 °C 1018.5 hPa Calm     83 % 0.0 mm
01:37 19.3 °C 16.3 °C 1018.5 hPa Calm     83 % 0.0 mm
01:42 19.2 °C 16.4 °C 1018.5 hPa Calm     84 % 0.0 mm
01:47 19.2 °C 16.4 °C 1018.5 hPa Calm     84 % 0.0 mm
01:52 19.3 °C 16.5 °C 1018.5 hPa Calm     84 % 0.0 mm
01:57 19.2 °C 16.4 °C 1018.5 hPa Calm     84 % 0.0 mm
02:02 19.3 °C 16.5 °C 1018.5 hPa Calm     84 % 0.0 mm
02:12 19.1 °C 16.3 °C 1018.2 hPa Calm     84 % 0.0 mm
02:17 19.0 °C 16.2 °C 1018.5 hPa Calm     84 % 0.0 mm
02:22 18.8 °C 16.0 °C 1018.5 hPa Calm     84 % 0.0 mm
02:32 18.4 °C 15.8 °C 1018.2 hPa Calm     85 % 0.0 mm
02:37 18.3 °C 15.9 °C 1018.2 hPa Calm     86 % 0.0 mm
02:42 18.2 °C 15.8 °C 1018.2 hPa Calm     86 % 0.0 mm
02:52 17.9 °C 15.9 °C 1018.2 hPa Calm     88 % 0.0 mm
02:57 17.8 °C 15.8 °C 1018.2 hPa Calm     88 % 0.0 mm
03:12 17.8 °C 16.0 °C 1018.2 hPa Calm     89 % 0.0 mm
03:22 17.8 °C 15.8 °C 1018.2 hPa Calm     88 % 0.0 mm
03:32 17.8 °C 15.8 °C 1018.2 hPa Calm     88 % 0.0 mm
03:42 17.7 °C 15.9 °C 1018.2 hPa Calm     89 % 0.0 mm
03:47 17.7 °C 15.9 °C 1017.8 hPa Calm     89 % 0.0 mm
03:57 17.7 °C 15.9 °C 1017.8 hPa Calm     89 % 0.0 mm
04:02 17.7 °C 15.9 °C 1017.8 hPa Calm     89 % 0.0 mm
04:12 17.7 °C 15.9 °C 1017.8 hPa Calm     89 % 0.0 mm
04:17 17.7 °C 15.9 °C 1017.8 hPa Calm     89 % 0.0 mm
04:27 17.7 °C 15.9 °C 1017.8 hPa Calm     89 % 0.0 mm
04:33 17.6 °C 15.8 °C 1017.8 hPa Calm     89 % 0.0 mm
04:42 17.6 °C 15.8 °C 1017.8 hPa Calm     89 % 0.0 mm
04:47 17.6 °C 15.8 °C 1017.8 hPa Calm     89 % 0.0 mm
04:52 17.6 °C 15.8 °C 1017.8 hPa Calm     89 % 0.0 mm
05:02 17.4 °C 15.7 °C 1017.8 hPa Calm     90 % 0.0 mm
05:12 17.4 °C 15.7 °C 1017.8 hPa Calm     90 % 0.0 mm
05:22 17.2 °C 15.4 °C 1017.8 hPa Calm     89 % 0.0 mm
05:32 17.2 °C 15.5 °C 1017.8 hPa Calm     90 % 0.0 mm
05:42 17.1 °C 15.4 °C 1017.8 hPa Calm     90 % 0.0 mm
05:52 16.9 °C 15.2 °C 1017.8 hPa Calm     90 % 0.0 mm
06:02 16.8 °C 15.3 °C 1017.8 hPa Calm     91 % 0.0 mm
06:12 16.7 °C 15.2 °C 1017.5 hPa Calm     91 % 0.0 mm
06:17 16.6 °C 15.1 °C 1017.5 hPa Calm     91 % 0.0 mm
06:22 16.6 °C 15.1 °C 1017.5 hPa Calm     91 % 0.0 mm
06:32 16.4 °C 14.9 °C 1017.8 hPa Calm     91 % 0.0 mm
06:42 16.3 °C 14.8 °C 1017.8 hPa Calm     91 % 0.0 mm
06:52 16.2 °C 14.9 °C 1017.8 hPa Calm     92 % 0.0 mm
07:12 16.3 °C 15.2 °C 1017.8 hPa Calm     93 % 0.0 mm
07:22 16.5 °C 15.5 °C 1017.8 hPa Calm     94 % 0.0 mm
07:32 16.8 °C 15.8 °C 1017.8 hPa Calm     94 % 0.0 mm
07:42 17.2 °C 16.2 °C 1017.8 hPa Calm     94 % 0.0 mm
07:52 17.6 °C 16.6 °C 1017.8 hPa Calm     94 % 0.0 mm
08:02 17.9 °C 16.8 °C 1017.8 hPa Calm     93 % 0.0 mm
08:12 18.3 °C 17.0 °C 1017.8 hPa Calm     92 % 0.0 mm
08:22 19.2 °C 17.3 °C 1017.8 hPa Calm     89 % 0.0 mm
08:32 20.2 °C 17.6 °C 1017.8 hPa Calm     85 % 0.0 mm
08:42 20.9 °C 17.5 °C 1017.8 hPa Calm   1.6 km/h 81 % 0.0 mm
08:52 21.1 °C 17.9 °C 1018.2 hPa Calm   3.2 km/h 82 % 0.0 mm
09:02 22.4 °C 17.5 °C 1018.2 hPa Calm     74 % 0.0 mm
09:12 23.7 °C 17.7 °C 1018.2 hPa NW 1.6 km/h 3.2 km/h 69 % 0.0 mm
09:22 24.6 °C 18.1 °C 1018.2 hPa Calm   4.8 km/h 67 % 0.0 mm
09:32 25.4 °C 18.3 °C 1018.2 hPa West 1.6 km/h 4.8 km/h 65 % 0.0 mm
09:42 26.3 °C 18.9 °C 1017.8 hPa Calm   6.4 km/h 64 % 0.0 mm
09:52 27.1 °C 18.9 °C 1018.2 hPa Calm   6.4 km/h 61 % 0.0 mm
10:02 27.9 °C 18.6 °C 1017.8 hPa WSW 1.6 km/h 3.2 km/h 57 % 0.0 mm
10:12 28.7 °C 19.1 °C 1017.8 hPa Calm   4.8 km/h 56 % 0.0 mm
10:17 29.0 °C 18.1 °C 1017.8 hPa NW 1.6 km/h 6.4 km/h 52 % 0.0 mm
10:22 29.3 °C 19.0 °C 1017.8 hPa West 1.6 km/h 6.4 km/h 54 % 0.0 mm
10:32 30.1 °C 18.2 °C 1017.8 hPa NNW 1.6 km/h 9.7 km/h 49 % 0.0 mm
10:42 30.4 °C 18.5 °C 1017.8 hPa Calm   8.0 km/h 49 % 0.0 mm
10:52 30.8 °C 17.8 °C 1017.8 hPa WNW 6.4 km/h 6.4 km/h 46 % 0.0 mm
11:02 30.6 °C 17.3 °C 1017.8 hPa Calm   11.3 km/h 45 % 0.0 mm
11:12 31.0 °C 18.0 °C 1017.5 hPa West 1.6 km/h 12.9 km/h 46 % 0.0 mm
11:17 31.4 °C 18.0 °C 1017.5 hPa NW 4.8 km/h 12.9 km/h 45 % 0.0 mm
11:22 31.6 °C 17.5 °C 1017.5 hPa WNW 4.8 km/h 12.9 km/h 43 % 0.0 mm
11:32 31.9 °C 17.8 °C 1017.5 hPa NW 3.2 km/h 8.0 km/h 43 % 0.0 mm
11:42 32.4 °C 18.2 °C 1017.5 hPa NNE 1.6 km/h 8.0 km/h 43 % 0.0 mm
11:52 32.7 °C 17.7 °C 1017.5 hPa NW 6.4 km/h 8.0 km/h 41 % 0.0 mm
12:02 32.9 °C 17.5 °C 1017.2 hPa WNW 1.6 km/h 9.7 km/h 40 % 0.0 mm
12:12 33.2 °C 18.2 °C 1017.2 hPa Calm   8.0 km/h 41 % 0.0 mm
12:17 33.2 °C 17.4 °C 1017.2 hPa SE 1.6 km/h 9.7 km/h 39 % 0.0 mm
12:22 33.3 °C 17.9 °C 1017.2 hPa North 6.4 km/h 9.7 km/h 40 % 0.0 mm
12:32 33.4 °C 14.9 °C 1017.2 hPa WNW 3.2 km/h 11.3 km/h 33 % 0.0 mm
12:42 33.3 °C 16.2 °C 1017.2 hPa NW 1.6 km/h 11.3 km/h 36 % 0.0 mm
12:47 33.8 °C 15.3 °C 1017.2 hPa NW 8.0 km/h 11.3 km/h 33 % 0.0 mm
12:52 33.7 °C 15.2 °C 1017.2 hPa NW 4.8 km/h 11.3 km/h 33 % 0.0 mm
13:02 34.5 °C 15.9 °C 1016.8 hPa NE 3.2 km/h 16.1 km/h 33 % 0.0 mm
13:07 34.6 °C 13.4 °C 1016.8 hPa Calm   9.7 km/h 28 % 0.0 mm
13:17 34.6 °C 15.0 °C 1016.8 hPa WSW 1.6 km/h 9.7 km/h 31 % 0.0 mm
13:22 34.7 °C 14.6 °C 1016.8 hPa NW 4.8 km/h 9.7 km/h 30 % 0.0 mm
13:32 35.2 °C 14.5 °C 1016.8 hPa Calm   9.7 km/h 29 % 0.0 mm
13:42 35.1 °C 13.3 °C 1016.8 hPa NNW 8.0 km/h 8.0 km/h 27 % 0.0 mm
13:52 35.0 °C 15.8 °C 1016.5 hPa Calm   11.3 km/h 32 % 0.0 mm
14:02 35.2 °C 15.0 °C 1016.5 hPa Calm   11.3 km/h 30 % 0.0 mm
14:12 35.6 °C 16.4 °C 1016.5 hPa Calm   11.3 km/h 32 % 0.0 mm
14:22 35.7 °C 14.9 °C 1016.5 hPa NW 3.2 km/h 6.4 km/h 29 % 0.0 mm
14:42 35.8 °C 15.0 °C 1016.1 hPa WNW 1.6 km/h 11.3 km/h 29 % 0.0 mm
14:47 35.7 °C 16.9 °C 1016.1 hPa Calm   8.0 km/h 33 % 0.0 mm
14:52 36.1 °C 14.7 °C 1016.1 hPa Calm   8.0 km/h 28 % 0.0 mm
14:57 36.1 °C 14.1 °C 1016.1 hPa Calm   8.0 km/h 27 % 0.0 mm
15:07 36.3 °C 15.4 °C 1016.1 hPa WSW 3.2 km/h 9.7 km/h 29 % 0.0 mm
15:12 36.5 °C 15.0 °C 1016.1 hPa West 4.8 km/h 8.0 km/h 28 % 0.0 mm
15:17 36.4 °C 14.4 °C 1016.1 hPa Calm   6.4 km/h 27 % 0.0 mm
15:22 36.4 °C 15.5 °C 1016.1 hPa NNW 3.2 km/h 12.9 km/h 29 % 0.0 mm
15:32 35.9 °C 15.6 °C 1015.8 hPa Calm   12.9 km/h 30 % 0.0 mm
15:37 36.1 °C 15.2 °C 1015.8 hPa NW 1.6 km/h 11.3 km/h 29 % 0.0 mm
15:42 36.5 °C 15.6 °C 1015.8 hPa Calm   11.3 km/h 29 % 0.0 mm
15:47 36.6 °C 15.1 °C 1015.8 hPa West 4.8 km/h 6.4 km/h 28 % 0.0 mm
15:52 36.3 °C 16.5 °C 1015.5 hPa Calm   6.4 km/h 31 % 0.0 mm
15:57 36.3 °C 14.3 °C 1015.5 hPa WNW 6.4 km/h 9.7 km/h 27 % 0.0 mm
16:02 36.0 °C 14.1 °C 1015.5 hPa NNW 3.2 km/h 12.9 km/h 27 % 0.0 mm
16:12 36.4 °C 16.0 °C 1015.5 hPa Calm   12.9 km/h 30 % 0.0 mm
16:17 36.5 °C 16.1 °C 1015.5 hPa Calm   9.7 km/h 30 % 0.0 mm
16:22 36.7 °C 15.8 °C 1015.5 hPa Calm   9.7 km/h 29 % 0.0 mm
16:27 36.8 °C 15.3 °C 1015.5 hPa Calm   6.4 km/h 28 % 0.0 mm
16:32 36.6 °C 15.7 °C 1015.5 hPa NW 3.2 km/h 14.5 km/h 29 % 0.0 mm
16:37 36.4 °C 15.0 °C 1015.5 hPa WSW 1.6 km/h 14.5 km/h 28 % 0.0 mm
16:42 36.4 °C 14.4 °C 1015.5 hPa NW 4.8 km/h 14.5 km/h 27 % 0.0 mm
16:47 36.2 °C 14.8 °C 1015.1 hPa NNW 6.4 km/h 9.7 km/h 28 % 0.0 mm
16:52 36.3 °C 14.9 °C 1015.1 hPa WNW 3.2 km/h 9.7 km/h 28 % 0.0 mm
16:57 36.7 °C 16.3 °C 1015.1 hPa Calm   8.0 km/h 30 % 0.0 mm
17:02 36.8 °C 14.2 °C 1015.1 hPa West 3.2 km/h 8.0 km/h 26 % 0.0 mm
17:07 36.9 °C 14.2 °C 1015.1 hPa WNW 1.6 km/h 8.0 km/h 26 % 0.0 mm
17:12 36.7 °C 13.5 °C 1015.1 hPa Calm   8.0 km/h 25 % 0.0 mm
17:17 36.6 °C 14.0 °C 1014.8 hPa Calm   9.7 km/h 26 % 0.0 mm
17:22 36.4 °C 16.0 °C 1014.8 hPa Calm   9.7 km/h 30 % 0.0 mm
17:32 36.6 °C 14.6 °C 1014.8 hPa West 1.6 km/h 8.0 km/h 27 % 0.0 mm
17:37 36.7 °C 14.7 °C 1014.8 hPa SSW 1.6 km/h 8.0 km/h 27 % 0.0 mm
17:42 36.7 °C 15.8 °C 1014.8 hPa Calm   8.0 km/h 29 % 0.0 mm
17:47 36.6 °C 15.1 °C 1014.8 hPa Calm   8.0 km/h 28 % 0.0 mm
17:52 36.3 °C 14.3 °C 1014.8 hPa Calm   8.0 km/h 27 % 0.0 mm
17:57 36.2 °C 14.2 °C 1014.8 hPa WNW 1.6 km/h 9.7 km/h 27 % 0.0 mm
18:02 36.2 °C 14.8 °C 1014.4 hPa NW 4.8 km/h 9.7 km/h 28 % 0.0 mm
18:07 36.2 °C 14.2 °C 1014.4 hPa NW 4.8 km/h 9.7 km/h 27 % 0.0 mm
18:12 35.9 °C 14.5 °C 1014.4 hPa WSW 1.6 km/h 9.7 km/h 28 % 0.0 mm
18:17 35.9 °C 14.0 °C 1014.4 hPa NW 3.2 km/h 9.7 km/h 27 % 0.0 mm
18:22 35.9 °C 14.5 °C 1014.4 hPa Calm   12.9 km/h 28 % 0.0 mm
18:32 35.9 °C 14.0 °C 1014.4 hPa NNW 3.2 km/h 12.9 km/h 27 % 0.0 mm
18:37 35.9 °C 15.6 °C 1014.4 hPa NNW 3.2 km/h 8.0 km/h 30 % 0.0 mm
18:42 35.7 °C 14.4 °C 1014.1 hPa NW 1.6 km/h 8.0 km/h 28 % 0.0 mm
18:52 35.5 °C 14.2 °C 1014.1 hPa Calm   11.3 km/h 28 % 0.0 mm
18:57 35.2 °C 14.5 °C 1014.1 hPa Calm   11.3 km/h 29 % 0.0 mm
19:02 34.8 °C 13.6 °C 1014.1 hPa WNW 3.2 km/h 9.7 km/h 28 % 0.0 mm
19:07 34.7 °C 14.1 °C 1014.1 hPa NNW 1.6 km/h 9.7 km/h 29 % 0.0 mm
19:12 34.4 °C 13.8 °C 1014.1 hPa NNW 1.6 km/h 9.7 km/h 29 % 0.0 mm
19:17 34.3 °C 13.7 °C 1014.1 hPa NW 3.2 km/h 9.7 km/h 29 % 0.0 mm
19:22 34.3 °C 13.2 °C 1014.1 hPa WNW 1.6 km/h 9.7 km/h 28 % 0.0 mm
19:27 34.2 °C 13.1 °C 1014.1 hPa NW 1.6 km/h 9.7 km/h 28 % 0.0 mm
19:32 34.1 °C 13.0 °C 1013.8 hPa NNW 1.6 km/h 9.7 km/h 28 % 0.0 mm
19:37 33.9 °C 13.4 °C 1013.8 hPa North 1.6 km/h 9.7 km/h 29 % 0.0 mm
19:42 33.8 °C 12.7 °C 1013.8 hPa NNW 3.2 km/h 9.7 km/h 28 % 0.0 mm
19:47 33.7 °C 12.7 °C 1013.8 hPa Calm   8.0 km/h 28 % 0.0 mm
19:52 33.5 °C 13.5 °C 1014.1 hPa NNW 1.6 km/h 8.0 km/h 30 % 0.0 mm
19:57 33.2 °C 13.3 °C 1014.1 hPa WNW 3.2 km/h 8.0 km/h 30 % 0.0 mm
20:02 33.1 °C 13.7 °C 1014.1 hPa NNW 4.8 km/h 6.4 km/h 31 % 0.0 mm
20:12 32.8 °C 15.3 °C 1013.8 hPa West 1.6 km/h 9.7 km/h 35 % 0.0 mm
20:17 32.3 °C 15.3 °C 1013.8 hPa Calm   9.7 km/h 36 % 0.0 mm
20:22 31.8 °C 15.3 °C 1013.8 hPa Calm   6.4 km/h 37 % 0.0 mm
20:27 31.2 °C 15.2 °C 1013.8 hPa Calm   4.8 km/h 38 % 0.0 mm
20:37 30.0 °C 16.4 °C 1013.8 hPa Calm   3.2 km/h 44 % 0.0 mm
20:42 29.5 °C 16.0 °C 1013.8 hPa Calm   1.6 km/h 44 % 0.0 mm
20:47 29.2 °C 16.0 °C 1013.8 hPa Calm   1.6 km/h 45 % 0.0 mm
20:52 28.8 °C 16.4 °C 1013.8 hPa Calm     47 % 0.0 mm
20:57 28.4 °C 16.0 °C 1013.8 hPa Calm     47 % 0.0 mm
21:02 28.2 °C 15.8 °C 1013.8 hPa Calm     47 % 0.0 mm
21:07 27.9 °C 16.5 °C 1013.8 hPa Calm     50 % 0.0 mm
21:12 27.6 °C 16.6 °C 1013.8 hPa Calm     51 % 0.0 mm
21:17 27.3 °C 16.0 °C 1013.8 hPa Calm     50 % 0.0 mm
21:22 27.2 °C 16.2 °C 1013.8 hPa Calm   1.6 km/h 51 % 0.0 mm
21:27 26.8 °C 16.7 °C 1013.8 hPa Calm   1.6 km/h 54 % 0.0 mm
21:32 26.6 °C 16.2 °C 1013.8 hPa Calm   1.6 km/h 53 % 0.0 mm
21:37 26.4 °C 16.3 °C 1013.8 hPa Calm   1.6 km/h 54 % 0.0 mm
21:42 26.3 °C 16.2 °C 1013.8 hPa Calm   1.6 km/h 54 % 0.0 mm
21:47 26.1 °C 16.4 °C 1013.8 hPa Calm     55 % 0.0 mm
21:52 25.8 °C 16.1 °C 1014.1 hPa Calm     55 % 0.0 mm
21:57 25.6 °C 16.2 °C 1014.1 hPa Calm     56 % 0.0 mm
22:02 25.4 °C 16.3 °C 1014.1 hPa Calm     57 % 0.0 mm
22:07 25.2 °C 16.1 °C 1014.1 hPa Calm     57 % 0.0 mm
22:12 25.3 °C 16.4 °C 1014.1 hPa Calm   3.2 km/h 58 % 0.0 mm
22:17 25.0 °C 16.4 °C 1014.1 hPa Calm   3.2 km/h 59 % 0.0 mm
22:22 24.9 °C 16.6 °C 1014.1 hPa Calm   3.2 km/h 60 % 0.0 mm
22:27 24.6 °C 16.6 °C 1014.1 hPa Calm   1.6 km/h 61 % 0.0 mm
22:32 24.5 °C 16.5 °C 1013.8 hPa Calm   1.6 km/h 61 % 0.0 mm
22:37 24.3 °C 16.6 °C 1014.1 hPa Calm   1.6 km/h 62 % 0.0 mm
22:42 24.3 °C 16.6 °C 1014.1 hPa Calm   1.6 km/h 62 % 0.0 mm
22:52 24.1 °C 16.6 °C 1014.1 hPa Calm     63 % 0.0 mm
23:02 23.6 °C 16.9 °C 1014.1 hPa Calm     66 % 0.0 mm
23:07 23.2 °C 16.7 °C 1014.1 hPa Calm     67 % 0.0 mm
23:12 22.9 °C 16.4 °C 1014.4 hPa Calm     67 % 0.0 mm
23:17 22.7 °C 16.5 °C 1014.1 hPa Calm     68 % 0.0 mm
23:22 22.4 °C 16.7 °C 1014.1 hPa Calm     70 % 0.0 mm
23:27 22.1 °C 16.6 °C 1014.4 hPa Calm     71 % 0.0 mm
23:32 21.9 °C 16.4 °C 1014.4 hPa Calm     71 % 0.0 mm
23:42 21.5 °C 16.7 °C 1014.4 hPa Calm     74 % 0.0 mm
23:47 21.4 °C 16.6 °C 1014.4 hPa Calm     74 % 0.0 mm
23:53 21.3 °C 16.7 °C 1014.4 hPa Calm     75 % 0.0 mm
Meteo18
Compliments of Weather Underground - 4 mb

Script developed by  Jim McMurry - jmcmurry@mwt.net Adapted for the template by  Wim van der Kuil - Leuven-Template.eu

You find our weather info also at:

European Weather Network

Weather Underground

Equipment we use:

Weather-station
Davis Vue

Weather-program
Meteohub

Weather-server
Raspberry PI 2 B+

Provider
1 and 1

Davis Vue

Meteohub

Raspberry PI 2 B+

1 and 1